sensor_id;sensor_type;location;lat;lon;timestamp;P1;durP1;ratioP1;P2;durP2;ratioP2
85797;SDS011;76244;53.434;14.484;2024-02-26T00:01:24;13.90;;;6.10;;
85797;SDS011;76244;53.434;14.484;2024-02-26T00:03:58;13.00;;;5.10;;
85797;SDS011;76244;53.434;14.484;2024-02-26T00:06:32;10.20;;;5.40;;
85797;SDS011;76244;53.434;14.484;2024-02-26T00:09:04;11.70;;;5.10;;
85797;SDS011;76244;53.434;14.484;2024-02-26T00:11:37;11.30;;;5.00;;
85797;SDS011;76244;53.434;14.484;2024-02-26T00:14:09;12.90;;;6.30;;
85797;SDS011;76244;53.434;14.484;2024-02-26T00:16:42;11.60;;;5.40;;
85797;SDS011;76244;53.434;14.484;2024-02-26T00:19:15;9.90;;;5.00;;
85797;SDS011;76244;53.434;14.484;2024-02-26T00:21:48;9.60;;;4.70;;
85797;SDS011;76244;53.434;14.484;2024-02-26T00:24:23;8.70;;;3.90;;
85797;SDS011;76244;53.434;14.484;2024-02-26T00:26:55;10.00;;;4.40;;
85797;SDS011;76244;53.434;14.484;2024-02-26T00:29:27;8.50;;;3.40;;
85797;SDS011;76244;53.434;14.484;2024-02-26T00:32:00;8.60;;;3.90;;
85797;SDS011;76244;53.434;14.484;2024-02-26T00:34:33;9.60;;;4.60;;
85797;SDS011;76244;53.434;14.484;2024-02-26T00:37:05;8.60;;;4.20;;
85797;SDS011;76244;53.434;14.484;2024-02-26T00:39:38;10.10;;;3.80;;
85797;SDS011;76244;53.434;14.484;2024-02-26T00:42:10;11.10;;;5.10;;
85797;SDS011;76244;53.434;14.484;2024-02-26T00:44:43;8.50;;;4.00;;
85797;SDS011;76244;53.434;14.484;2024-02-26T00:47:15;9.70;;;4.20;;
85797;SDS011;76244;53.434;14.484;2024-02-26T00:49:47;9.70;;;4.30;;
85797;SDS011;76244;53.434;14.484;2024-02-26T00:52:20;10.90;;;5.20;;
85797;SDS011;76244;53.434;14.484;2024-02-26T00:54:52;11.20;;;4.60;;
85797;SDS011;76244;53.434;14.484;2024-02-26T00:57:25;9.10;;;4.70;;
85797;SDS011;76244;53.434;14.484;2024-02-26T00:59:57;10.10;;;4.60;;
85797;SDS011;76244;53.434;14.484;2024-02-26T01:02:30;10.90;;;4.80;;
85797;SDS011;76244;53.434;14.484;2024-02-26T01:05:03;11.00;;;5.20;;
85797;SDS011;76244;53.434;14.484;2024-02-26T01:07:38;9.60;;;4.60;;
85797;SDS011;76244;53.434;14.484;2024-02-26T01:10:11;10.80;;;4.70;;
85797;SDS011;76244;53.434;14.484;2024-02-26T01:12:43;10.00;;;4.70;;
85797;SDS011;76244;53.434;14.484;2024-02-26T01:15:17;8.60;;;4.30;;
85797;SDS011;76244;53.434;14.484;2024-02-26T01:17:53;10.30;;;5.40;;
85797;SDS011;76244;53.434;14.484;2024-02-26T01:20:25;8.70;;;4.70;;
85797;SDS011;76244;53.434;14.484;2024-02-26T01:22:58;8.20;;;4.40;;
85797;SDS011;76244;53.434;14.484;2024-02-26T01:25:30;8.80;;;4.70;;
85797;SDS011;76244;53.434;14.484;2024-02-26T01:28:03;10.20;;;4.70;;
85797;SDS011;76244;53.434;14.484;2024-02-26T01:30:35;7.80;;;4.90;;
85797;SDS011;76244;53.434;14.484;2024-02-26T01:33:08;8.90;;;4.30;;
85797;SDS011;76244;53.434;14.484;2024-02-26T01:35:40;9.40;;;5.20;;
85797;SDS011;76244;53.434;14.484;2024-02-26T01:38:13;8.60;;;4.50;;
85797;SDS011;76244;53.434;14.484;2024-02-26T01:40:46;12.80;;;5.20;;
85797;SDS011;76244;53.434;14.484;2024-02-26T01:43:18;10.60;;;5.50;;
85797;SDS011;76244;53.434;14.484;2024-02-26T01:45:51;12.80;;;6.00;;
85797;SDS011;76244;53.434;14.484;2024-02-26T01:48:23;13.20;;;6.10;;
85797;SDS011;76244;53.434;14.484;2024-02-26T01:50:56;11.40;;;6.00;;
85797;SDS011;76244;53.434;14.484;2024-02-26T01:53:30;13.80;;;6.60;;
85797;SDS011;76244;53.434;14.484;2024-02-26T01:56:03;12.20;;;6.30;;
85797;SDS011;76244;53.434;14.484;2024-02-26T01:58:36;12.40;;;6.50;;
85797;SDS011;76244;53.434;14.484;2024-02-26T02:01:09;15.80;;;7.20;;
85797;SDS011;76244;53.434;14.484;2024-02-26T02:03:41;16.20;;;7.60;;
85797;SDS011;76244;53.434;14.484;2024-02-26T02:06:15;16.90;;;7.80;;
85797;SDS011;76244;53.434;14.484;2024-02-26T02:08:48;17.60;;;8.60;;
85797;SDS011;76244;53.434;14.484;2024-02-26T02:11:21;16.20;;;8.00;;
85797;SDS011;76244;53.434;14.484;2024-02-26T02:13:53;18.20;;;8.40;;
85797;SDS011;76244;53.434;14.484;2024-02-26T02:16:25;16.10;;;9.40;;
85797;SDS011;76244;53.434;14.484;2024-02-26T02:18:57;16.30;;;9.10;;
85797;SDS011;76244;53.434;14.484;2024-02-26T02:21:30;16.20;;;9.00;;
85797;SDS011;76244;53.434;14.484;2024-02-26T02:24:04;19.80;;;9.40;;
85797;SDS011;76244;53.434;14.484;2024-02-26T02:26:36;22.70;;;10.90;;
85797;SDS011;76244;53.434;14.484;2024-02-26T02:29:09;18.70;;;10.30;;
85797;SDS011;76244;53.434;14.484;2024-02-26T02:31:42;21.90;;;10.50;;
85797;SDS011;76244;53.434;14.484;2024-02-26T02:34:14;20.60;;;9.90;;
85797;SDS011;76244;53.434;14.484;2024-02-26T02:36:51;17.20;;;9.10;;
85797;SDS011;76244;53.434;14.484;2024-02-26T02:39:24;18.40;;;9.50;;
85797;SDS011;76244;53.434;14.484;2024-02-26T02:41:57;21.10;;;10.00;;
85797;SDS011;76244;53.434;14.484;2024-02-26T02:44:29;19.80;;;10.60;;
85797;SDS011;76244;53.434;14.484;2024-02-26T02:47:02;18.80;;;10.50;;
85797;SDS011;76244;53.434;14.484;2024-02-26T02:49:34;23.60;;;11.90;;
85797;SDS011;76244;53.434;14.484;2024-02-26T02:52:07;24.30;;;12.00;;
85797;SDS011;76244;53.434;14.484;2024-02-26T02:54:39;21.20;;;12.20;;
85797;SDS011;76244;53.434;14.484;2024-02-26T02:57:12;22.00;;;11.20;;
85797;SDS011;76244;53.434;14.484;2024-02-26T02:59:44;25.10;;;11.80;;
85797;SDS011;76244;53.434;14.484;2024-02-26T03:02:17;26.10;;;12.90;;
85797;SDS011;76244;53.434;14.484;2024-02-26T03:04:49;23.80;;;11.60;;
85797;SDS011;76244;53.434;14.484;2024-02-26T03:07:22;21.80;;;12.50;;
85797;SDS011;76244;53.434;14.484;2024-02-26T03:09:54;23.50;;;11.60;;
85797;SDS011;76244;53.434;14.484;2024-02-26T03:12:27;24.10;;;11.30;;
85797;SDS011;76244;53.434;14.484;2024-02-26T03:15:00;20.90;;;11.20;;
85797;SDS011;76244;53.434;14.484;2024-02-26T03:17:34;25.40;;;10.70;;
85797;SDS011;76244;53.434;14.484;2024-02-26T03:20:08;24.20;;;11.80;;
85797;SDS011;76244;53.434;14.484;2024-02-26T03:22:41;26.60;;;13.00;;
85797;SDS011;76244;53.434;14.484;2024-02-26T03:25:13;22.80;;;12.70;;
85797;SDS011;76244;53.434;14.484;2024-02-26T03:27:46;28.40;;;12.70;;
85797;SDS011;76244;53.434;14.484;2024-02-26T03:30:18;26.10;;;13.70;;
85797;SDS011;76244;53.434;14.484;2024-02-26T03:32:51;22.60;;;12.00;;
85797;SDS011;76244;53.434;14.484;2024-02-26T03:35:24;22.60;;;11.90;;
85797;SDS011;76244;53.434;14.484;2024-02-26T03:37:56;21.70;;;12.40;;
85797;SDS011;76244;53.434;14.484;2024-02-26T03:40:28;26.30;;;12.50;;
85797;SDS011;76244;53.434;14.484;2024-02-26T03:43:01;27.60;;;12.70;;
85797;SDS011;76244;53.434;14.484;2024-02-26T03:45:36;21.10;;;11.30;;
85797;SDS011;76244;53.434;14.484;2024-02-26T03:48:09;23.30;;;11.90;;
85797;SDS011;76244;53.434;14.484;2024-02-26T03:50:42;23.30;;;12.60;;
85797;SDS011;76244;53.434;14.484;2024-02-26T03:53:14;21.20;;;11.60;;
85797;SDS011;76244;53.434;14.484;2024-02-26T03:55:47;26.20;;;11.80;;
85797;SDS011;76244;53.434;14.484;2024-02-26T03:58:21;20.20;;;12.20;;
85797;SDS011;76244;53.434;14.484;2024-02-26T04:00:53;22.20;;;12.40;;
85797;SDS011;76244;53.434;14.484;2024-02-26T04:03:25;23.00;;;11.90;;
85797;SDS011;76244;53.434;14.484;2024-02-26T04:05:58;21.50;;;11.30;;
85797;SDS011;76244;53.434;14.484;2024-02-26T04:08:31;25.30;;;12.50;;
85797;SDS011;76244;53.434;14.484;2024-02-26T04:11:03;20.40;;;11.50;;
85797;SDS011;76244;53.434;14.484;2024-02-26T04:13:37;22.90;;;11.70;;
85797;SDS011;76244;53.434;14.484;2024-02-26T04:16:09;22.50;;;11.30;;
85797;SDS011;76244;53.434;14.484;2024-02-26T04:18:42;23.10;;;10.80;;
85797;SDS011;76244;53.434;14.484;2024-02-26T04:21:15;19.30;;;10.00;;
85797;SDS011;76244;53.434;14.484;2024-02-26T04:23:47;18.50;;;10.30;;
85797;SDS011;76244;53.434;14.484;2024-02-26T04:26:19;21.50;;;9.90;;
85797;SDS011;76244;53.434;14.484;2024-02-26T04:28:52;19.90;;;10.50;;
85797;SDS011;76244;53.434;14.484;2024-02-26T04:31:24;20.90;;;10.80;;
85797;SDS011;76244;53.434;14.484;2024-02-26T04:33:57;20.50;;;10.10;;
85797;SDS011;76244;53.434;14.484;2024-02-26T04:36:30;19.80;;;10.60;;
85797;SDS011;76244;53.434;14.484;2024-02-26T04:39:02;17.50;;;9.30;;
85797;SDS011;76244;53.434;14.484;2024-02-26T04:41:36;15.90;;;9.60;;
85797;SDS011;76244;53.434;14.484;2024-02-26T04:44:08;21.00;;;11.40;;
85797;SDS011;76244;53.434;14.484;2024-02-26T04:46:40;24.70;;;13.00;;
85797;SDS011;76244;53.434;14.484;2024-02-26T04:49:13;22.80;;;12.20;;
85797;SDS011;76244;53.434;14.484;2024-02-26T04:51:45;20.90;;;11.30;;
85797;SDS011;76244;53.434;14.484;2024-02-26T04:54:18;23.50;;;12.20;;
85797;SDS011;76244;53.434;14.484;2024-02-26T04:56:51;21.90;;;11.30;;
85797;SDS011;76244;53.434;14.484;2024-02-26T04:59:24;21.60;;;11.10;;
85797;SDS011;76244;53.434;14.484;2024-02-26T05:01:56;23.60;;;10.50;;
85797;SDS011;76244;53.434;14.484;2024-02-26T05:04:29;20.00;;;10.40;;
85797;SDS011;76244;53.434;14.484;2024-02-26T05:07:01;20.30;;;10.70;;
85797;SDS011;76244;53.434;14.484;2024-02-26T05:09:34;21.90;;;10.70;;
85797;SDS011;76244;53.434;14.484;2024-02-26T05:12:07;18.50;;;9.50;;
85797;SDS011;76244;53.434;14.484;2024-02-26T05:14:39;23.30;;;11.80;;
85797;SDS011;76244;53.434;14.484;2024-02-26T05:17:12;20.80;;;10.50;;
85797;SDS011;76244;53.434;14.484;2024-02-26T05:19:44;16.70;;;8.70;;
85797;SDS011;76244;53.434;14.484;2024-02-26T05:22:17;17.40;;;9.40;;
85797;SDS011;76244;53.434;14.484;2024-02-26T05:24:49;19.80;;;10.50;;
85797;SDS011;76244;53.434;14.484;2024-02-26T05:27:22;19.10;;;9.70;;
85797;SDS011;76244;53.434;14.484;2024-02-26T05:29:54;19.20;;;9.70;;
85797;SDS011;76244;53.434;14.484;2024-02-26T05:32:27;19.60;;;9.20;;
85797;SDS011;76244;53.434;14.484;2024-02-26T05:34:59;20.20;;;10.70;;
85797;SDS011;76244;53.434;14.484;2024-02-26T05:37:33;19.70;;;10.70;;
85797;SDS011;76244;53.434;14.484;2024-02-26T05:40:06;19.90;;;10.70;;
85797;SDS011;76244;53.434;14.484;2024-02-26T05:42:40;20.10;;;10.20;;
85797;SDS011;76244;53.434;14.484;2024-02-26T05:45:14;20.00;;;11.20;;
85797;SDS011;76244;53.434;14.484;2024-02-26T05:47:47;26.10;;;12.20;;
85797;SDS011;76244;53.434;14.484;2024-02-26T05:50:20;18.30;;;10.80;;
85797;SDS011;76244;53.434;14.484;2024-02-26T05:52:52;20.30;;;11.40;;
85797;SDS011;76244;53.434;14.484;2024-02-26T05:55:24;20.80;;;11.40;;
85797;SDS011;76244;53.434;14.484;2024-02-26T05:57:57;20.60;;;11.70;;
85797;SDS011;76244;53.434;14.484;2024-02-26T06:00:29;22.20;;;11.40;;
85797;SDS011;76244;53.434;14.484;2024-02-26T06:03:02;24.40;;;12.00;;
85797;SDS011;76244;53.434;14.484;2024-02-26T06:05:34;22.10;;;12.70;;
85797;SDS011;76244;53.434;14.484;2024-02-26T06:08:07;19.70;;;11.10;;
85797;SDS011;76244;53.434;14.484;2024-02-26T06:10:40;23.80;;;11.30;;
85797;SDS011;76244;53.434;14.484;2024-02-26T06:13:12;18.90;;;10.70;;
85797;SDS011;76244;53.434;14.484;2024-02-26T06:15:45;20.70;;;11.60;;
85797;SDS011;76244;53.434;14.484;2024-02-26T06:18:17;24.80;;;13.20;;
85797;SDS011;76244;53.434;14.484;2024-02-26T06:20:49;27.40;;;13.30;;
85797;SDS011;76244;53.434;14.484;2024-02-26T06:23:22;28.60;;;14.70;;
85797;SDS011;76244;53.434;14.484;2024-02-26T06:25:55;26.30;;;14.80;;
85797;SDS011;76244;53.434;14.484;2024-02-26T06:28:27;29.20;;;15.30;;
85797;SDS011;76244;53.434;14.484;2024-02-26T06:31:02;24.50;;;13.90;;
85797;SDS011;76244;53.434;14.484;2024-02-26T06:33:35;29.90;;;15.70;;
85797;SDS011;76244;53.434;14.484;2024-02-26T06:36:08;29.30;;;14.80;;
85797;SDS011;76244;53.434;14.484;2024-02-26T06:38:40;28.50;;;13.90;;
85797;SDS011;76244;53.434;14.484;2024-02-26T06:41:12;25.00;;;14.50;;
85797;SDS011;76244;53.434;14.484;2024-02-26T06:43:45;28.10;;;14.80;;
85797;SDS011;76244;53.434;14.484;2024-02-26T06:46:17;31.50;;;14.60;;
85797;SDS011;76244;53.434;14.484;2024-02-26T06:48:50;28.00;;;14.80;;
85797;SDS011;76244;53.434;14.484;2024-02-26T06:51:24;26.80;;;12.90;;
85797;SDS011;76244;53.434;14.484;2024-02-26T06:53:56;33.00;;;14.10;;
85797;SDS011;76244;53.434;14.484;2024-02-26T06:56:30;25.50;;;14.40;;
85797;SDS011;76244;53.434;14.484;2024-02-26T06:59:02;30.20;;;16.30;;
85797;SDS011;76244;53.434;14.484;2024-02-26T07:01:34;24.50;;;14.60;;
85797;SDS011;76244;53.434;14.484;2024-02-26T07:04:07;28.70;;;14.30;;
85797;SDS011;76244;53.434;14.484;2024-02-26T07:06:40;24.70;;;14.50;;
85797;SDS011;76244;53.434;14.484;2024-02-26T07:09:13;24.00;;;14.10;;
85797;SDS011;76244;53.434;14.484;2024-02-26T07:11:46;22.10;;;13.20;;
85797;SDS011;76244;53.434;14.484;2024-02-26T07:14:19;23.60;;;13.20;;
85797;SDS011;76244;53.434;14.484;2024-02-26T07:16:52;24.90;;;13.40;;
85797;SDS011;76244;53.434;14.484;2024-02-26T07:19:25;23.70;;;15.00;;
85797;SDS011;76244;53.434;14.484;2024-02-26T07:21:58;23.90;;;14.20;;
85797;SDS011;76244;53.434;14.484;2024-02-26T07:24:31;25.30;;;13.50;;
85797;SDS011;76244;53.434;14.484;2024-02-26T07:27:04;24.60;;;13.40;;
85797;SDS011;76244;53.434;14.484;2024-02-26T07:29:36;25.10;;;13.30;;
85797;SDS011;76244;53.434;14.484;2024-02-26T07:32:08;23.90;;;13.40;;
85797;SDS011;76244;53.434;14.484;2024-02-26T07:34:41;22.10;;;13.50;;
85797;SDS011;76244;53.434;14.484;2024-02-26T07:37:14;23.20;;;13.20;;
85797;SDS011;76244;53.434;14.484;2024-02-26T07:39:47;26.00;;;13.00;;
85797;SDS011;76244;53.434;14.484;2024-02-26T07:42:19;22.70;;;15.40;;
85797;SDS011;76244;53.434;14.484;2024-02-26T07:44:52;24.50;;;14.50;;
85797;SDS011;76244;53.434;14.484;2024-02-26T07:47:25;27.90;;;15.70;;
85797;SDS011;76244;53.434;14.484;2024-02-26T07:49:59;23.10;;;15.00;;
85797;SDS011;76244;53.434;14.484;2024-02-26T07:52:32;20.90;;;13.20;;
85797;SDS011;76244;53.434;14.484;2024-02-26T07:55:05;20.80;;;12.70;;
85797;SDS011;76244;53.434;14.484;2024-02-26T07:57:41;20.50;;;13.60;;
85797;SDS011;76244;53.434;14.484;2024-02-26T08:00:14;23.50;;;13.00;;
85797;SDS011;76244;53.434;14.484;2024-02-26T08:02:48;24.10;;;12.70;;
85797;SDS011;76244;53.434;14.484;2024-02-26T08:05:20;24.40;;;12.20;;
85797;SDS011;76244;53.434;14.484;2024-02-26T08:07:54;22.20;;;11.90;;
85797;SDS011;76244;53.434;14.484;2024-02-26T08:10:27;19.30;;;10.80;;
85797;SDS011;76244;53.434;14.484;2024-02-26T08:13:01;18.20;;;9.50;;
85797;SDS011;76244;53.434;14.484;2024-02-26T08:15:35;17.80;;;8.70;;
85797;SDS011;76244;53.434;14.484;2024-02-26T08:18:07;12.80;;;7.80;;
85797;SDS011;76244;53.434;14.484;2024-02-26T08:20:40;15.40;;;7.80;;
85797;SDS011;76244;53.434;14.484;2024-02-26T08:23:12;14.90;;;8.00;;
85797;SDS011;76244;53.434;14.484;2024-02-26T08:25:45;14.10;;;8.20;;
85797;SDS011;76244;53.434;14.484;2024-02-26T08:28:17;13.50;;;8.10;;
85797;SDS011;76244;53.434;14.484;2024-02-26T08:30:49;15.20;;;7.50;;
85797;SDS011;76244;53.434;14.484;2024-02-26T08:33:22;13.10;;;8.10;;
85797;SDS011;76244;53.434;14.484;2024-02-26T08:35:55;12.30;;;7.80;;
85797;SDS011;76244;53.434;14.484;2024-02-26T08:38:28;15.20;;;9.00;;
85797;SDS011;76244;53.434;14.484;2024-02-26T08:41:01;13.60;;;8.40;;
85797;SDS011;76244;53.434;14.484;2024-02-26T08:43:33;17.60;;;7.90;;
85797;SDS011;76244;53.434;14.484;2024-02-26T08:46:09;13.30;;;7.70;;
85797;SDS011;76244;53.434;14.484;2024-02-26T08:48:42;13.50;;;8.20;;
85797;SDS011;76244;53.434;14.484;2024-02-26T08:51:15;14.30;;;7.60;;
85797;SDS011;76244;53.434;14.484;2024-02-26T08:53:47;14.30;;;8.50;;
85797;SDS011;76244;53.434;14.484;2024-02-26T08:56:20;17.30;;;9.20;;
85797;SDS011;76244;53.434;14.484;2024-02-26T08:58:52;19.90;;;10.50;;
85797;SDS011;76244;53.434;14.484;2024-02-26T09:01:26;16.80;;;9.50;;
85797;SDS011;76244;53.434;14.484;2024-02-26T09:03:59;14.30;;;8.60;;
85797;SDS011;76244;53.434;14.484;2024-02-26T09:06:31;17.50;;;9.50;;
85797;SDS011;76244;53.434;14.484;2024-02-26T09:09:04;16.40;;;9.50;;
85797;SDS011;76244;53.434;14.484;2024-02-26T09:11:36;14.70;;;9.10;;
85797;SDS011;76244;53.434;14.484;2024-02-26T09:14:09;17.00;;;10.30;;
85797;SDS011;76244;53.434;14.484;2024-02-26T09:16:41;15.70;;;9.50;;
85797;SDS011;76244;53.434;14.484;2024-02-26T09:19:13;18.90;;;10.30;;
85797;SDS011;76244;53.434;14.484;2024-02-26T09:21:46;18.20;;;10.70;;
85797;SDS011;76244;53.434;14.484;2024-02-26T09:24:19;17.60;;;10.70;;
85797;SDS011;76244;53.434;14.484;2024-02-26T09:26:51;18.80;;;10.90;;
85797;SDS011;76244;53.434;14.484;2024-02-26T09:29:23;19.10;;;11.50;;
85797;SDS011;76244;53.434;14.484;2024-02-26T09:31:56;23.00;;;12.60;;
85797;SDS011;76244;53.434;14.484;2024-02-26T09:34:30;26.80;;;12.90;;
85797;SDS011;76244;53.434;14.484;2024-02-26T09:37:03;20.90;;;12.60;;
85797;SDS011;76244;53.434;14.484;2024-02-26T09:39:49;21.20;;;12.20;;
85797;SDS011;76244;53.434;14.484;2024-02-26T09:42:22;23.10;;;13.60;;
85797;SDS011;76244;53.434;14.484;2024-02-26T09:44:57;22.40;;;13.50;;
85797;SDS011;76244;53.434;14.484;2024-02-26T09:47:38;26.50;;;14.60;;
85797;SDS011;76244;53.434;14.484;2024-02-26T09:50:11;24.40;;;14.10;;
85797;SDS011;76244;53.434;14.484;2024-02-26T09:52:47;26.80;;;14.40;;
85797;SDS011;76244;53.434;14.484;2024-02-26T09:55:19;23.10;;;13.00;;
85797;SDS011;76244;53.434;14.484;2024-02-26T09:57:52;24.30;;;14.30;;
85797;SDS011;76244;53.434;14.484;2024-02-26T10:00:26;23.20;;;14.40;;
85797;SDS011;76244;53.434;14.484;2024-02-26T10:03:04;25.70;;;14.70;;
85797;SDS011;76244;53.434;14.484;2024-02-26T10:05:41;24.70;;;14.40;;
85797;SDS011;76244;53.434;14.484;2024-02-26T10:08:14;27.10;;;15.60;;
85797;SDS011;76244;53.434;14.484;2024-02-26T10:10:51;24.70;;;15.40;;
85797;SDS011;76244;53.434;14.484;2024-02-26T10:13:24;26.60;;;14.80;;
85797;SDS011;76244;53.434;14.484;2024-02-26T10:15:57;25.00;;;14.40;;
85797;SDS011;76244;53.434;14.484;2024-02-26T10:18:46;25.90;;;14.60;;
85797;SDS011;76244;53.434;14.484;2024-02-26T10:21:28;24.90;;;14.10;;
85797;SDS011;76244;53.434;14.484;2024-02-26T10:24:01;30.50;;;17.00;;
85797;SDS011;76244;53.434;14.484;2024-02-26T10:26:34;31.50;;;16.60;;
85797;SDS011;76244;53.434;14.484;2024-02-26T10:29:06;25.40;;;15.90;;
85797;SDS011;76244;53.434;14.484;2024-02-26T10:31:42;32.60;;;18.50;;
85797;SDS011;76244;53.434;14.484;2024-02-26T10:34:16;29.70;;;17.90;;
85797;SDS011;76244;53.434;14.484;2024-02-26T10:36:49;32.00;;;18.40;;
85797;SDS011;76244;53.434;14.484;2024-02-26T10:39:23;33.40;;;18.60;;
85797;SDS011;76244;53.434;14.484;2024-02-26T10:41:55;37.20;;;19.40;;
85797;SDS011;76244;53.434;14.484;2024-02-26T10:44:27;34.20;;;19.30;;
85797;SDS011;76244;53.434;14.484;2024-02-26T10:47:01;29.90;;;17.70;;
85797;SDS011;76244;53.434;14.484;2024-02-26T10:49:33;30.40;;;16.60;;
85797;SDS011;76244;53.434;14.484;2024-02-26T10:52:06;27.20;;;17.50;;
85797;SDS011;76244;53.434;14.484;2024-02-26T10:54:39;27.70;;;16.70;;
85797;SDS011;76244;53.434;14.484;2024-02-26T10:57:17;27.50;;;16.20;;
85797;SDS011;76244;53.434;14.484;2024-02-26T10:59:51;28.10;;;15.50;;
85797;SDS011;76244;53.434;14.484;2024-02-26T11:02:24;24.60;;;15.80;;
85797;SDS011;76244;53.434;14.484;2024-02-26T11:04:57;26.80;;;15.60;;
85797;SDS011;76244;53.434;14.484;2024-02-26T11:07:31;23.80;;;14.30;;
85797;SDS011;76244;53.434;14.484;2024-02-26T11:10:05;23.40;;;13.90;;
85797;SDS011;76244;53.434;14.484;2024-02-26T11:12:40;25.80;;;15.50;;
85797;SDS011;76244;53.434;14.484;2024-02-26T11:15:14;22.40;;;13.80;;
85797;SDS011;76244;53.434;14.484;2024-02-26T11:17:48;21.40;;;13.40;;
85797;SDS011;76244;53.434;14.484;2024-02-26T11:20:22;24.40;;;12.80;;
85797;SDS011;76244;53.434;14.484;2024-02-26T11:22:58;20.60;;;13.00;;
85797;SDS011;76244;53.434;14.484;2024-02-26T11:25:31;21.50;;;13.10;;
85797;SDS011;76244;53.434;14.484;2024-02-26T11:28:06;22.20;;;12.40;;
85797;SDS011;76244;53.434;14.484;2024-02-26T11:30:43;20.30;;;12.20;;
85797;SDS011;76244;53.434;14.484;2024-02-26T11:35:50;20.10;;;11.20;;
85797;SDS011;76244;53.434;14.484;2024-02-26T11:38:26;22.40;;;12.30;;
85797;SDS011;76244;53.434;14.484;2024-02-26T11:40:59;20.10;;;11.70;;
85797;SDS011;76244;53.434;14.484;2024-02-26T11:46:27;17.80;;;10.00;;
85797;SDS011;76244;53.434;14.484;2024-02-26T11:49:01;18.20;;;10.40;;
85797;SDS011;76244;53.434;14.484;2024-02-26T11:51:55;17.10;;;9.90;;
85797;SDS011;76244;53.434;14.484;2024-02-26T11:54:46;16.90;;;9.20;;
85797;SDS011;76244;53.434;14.484;2024-02-26T11:57:23;16.90;;;9.30;;
85797;SDS011;76244;53.434;14.484;2024-02-26T12:00:10;18.80;;;9.20;;
85797;SDS011;76244;53.434;14.484;2024-02-26T12:02:46;17.80;;;10.40;;
85797;SDS011;76244;53.434;14.484;2024-02-26T12:05:21;18.30;;;9.90;;
85797;SDS011;76244;53.434;14.484;2024-02-26T12:08:00;20.90;;;9.70;;
85797;SDS011;76244;53.434;14.484;2024-02-26T12:10:38;15.10;;;9.30;;
85797;SDS011;76244;53.434;14.484;2024-02-26T12:13:14;15.20;;;9.40;;
85797;SDS011;76244;53.434;14.484;2024-02-26T12:15:56;15.60;;;9.90;;
85797;SDS011;76244;53.434;14.484;2024-02-26T12:18:29;19.20;;;9.40;;
85797;SDS011;76244;53.434;14.484;2024-02-26T12:21:02;19.20;;;9.40;;
85797;SDS011;76244;53.434;14.484;2024-02-26T12:23:35;13.30;;;7.80;;
85797;SDS011;76244;53.434;14.484;2024-02-26T12:26:08;18.40;;;8.60;;
85797;SDS011;76244;53.434;14.484;2024-02-26T12:28:42;16.00;;;8.50;;
85797;SDS011;76244;53.434;14.484;2024-02-26T12:31:14;17.20;;;8.70;;
85797;SDS011;76244;53.434;14.484;2024-02-26T12:33:47;13.50;;;8.00;;
85797;SDS011;76244;53.434;14.484;2024-02-26T12:36:20;13.50;;;8.40;;
85797;SDS011;76244;53.434;14.484;2024-02-26T12:38:52;12.70;;;7.60;;
85797;SDS011;76244;53.434;14.484;2024-02-26T12:41:25;13.10;;;7.90;;
85797;SDS011;76244;53.434;14.484;2024-02-26T12:43:59;14.30;;;7.80;;
85797;SDS011;76244;53.434;14.484;2024-02-26T12:49:04;11.50;;;6.50;;
85797;SDS011;76244;53.434;14.484;2024-02-26T12:51:37;14.50;;;7.00;;
85797;SDS011;76244;53.434;14.484;2024-02-26T12:54:10;14.90;;;7.70;;
85797;SDS011;76244;53.434;14.484;2024-02-26T12:56:43;12.50;;;7.20;;
85797;SDS011;76244;53.434;14.484;2024-02-26T12:59:16;11.90;;;7.40;;
85797;SDS011;76244;53.434;14.484;2024-02-26T13:01:48;12.70;;;7.00;;
85797;SDS011;76244;53.434;14.484;2024-02-26T13:04:21;12.30;;;6.80;;
85797;SDS011;76244;53.434;14.484;2024-02-26T13:06:53;12.10;;;6.60;;
85797;SDS011;76244;53.434;14.484;2024-02-26T13:09:33;12.30;;;7.50;;
85797;SDS011;76244;53.434;14.484;2024-02-26T13:12:07;12.70;;;8.10;;
85797;SDS011;76244;53.434;14.484;2024-02-26T13:14:41;15.70;;;8.60;;
85797;SDS011;76244;53.434;14.484;2024-02-26T13:17:13;13.30;;;7.20;;
85797;SDS011;76244;53.434;14.484;2024-02-26T13:19:52;13.00;;;7.50;;
85797;SDS011;76244;53.434;14.484;2024-02-26T13:22:24;22.20;;;12.70;;
85797;SDS011;76244;53.434;14.484;2024-02-26T13:24:59;19.30;;;10.00;;
85797;SDS011;76244;53.434;14.484;2024-02-26T13:27:32;18.30;;;9.00;;
85797;SDS011;76244;53.434;14.484;2024-02-26T13:30:08;16.50;;;8.40;;
85797;SDS011;76244;53.434;14.484;2024-02-26T13:32:41;28.70;;;13.10;;
85797;SDS011;76244;53.434;14.484;2024-02-26T13:35:16;28.80;;;15.40;;
85797;SDS011;76244;53.434;14.484;2024-02-26T13:37:49;23.60;;;11.80;;
85797;SDS011;76244;53.434;14.484;2024-02-26T13:40:22;23.80;;;12.00;;
85797;SDS011;76244;53.434;14.484;2024-02-26T13:42:54;22.80;;;12.90;;
85797;SDS011;76244;53.434;14.484;2024-02-26T13:45:26;23.40;;;13.00;;
85797;SDS011;76244;53.434;14.484;2024-02-26T13:48:02;22.50;;;12.10;;
85797;SDS011;76244;53.434;14.484;2024-02-26T13:50:36;22.90;;;11.80;;
85797;SDS011;76244;53.434;14.484;2024-02-26T13:53:08;16.30;;;10.10;;
85797;SDS011;76244;53.434;14.484;2024-02-26T13:55:41;19.10;;;11.10;;
85797;SDS011;76244;53.434;14.484;2024-02-26T13:58:14;21.90;;;11.70;;
85797;SDS011;76244;53.434;14.484;2024-02-26T14:00:52;23.10;;;11.70;;
85797;SDS011;76244;53.434;14.484;2024-02-26T14:03:24;21.80;;;11.30;;
85797;SDS011;76244;53.434;14.484;2024-02-26T14:05:56;23.00;;;12.50;;
85797;SDS011;76244;53.434;14.484;2024-02-26T14:08:29;24.10;;;13.20;;
85797;SDS011;76244;53.434;14.484;2024-02-26T14:11:02;21.20;;;11.50;;
85797;SDS011;76244;53.434;14.484;2024-02-26T14:13:34;20.60;;;11.70;;
85797;SDS011;76244;53.434;14.484;2024-02-26T14:16:10;20.00;;;11.10;;
85797;SDS011;76244;53.434;14.484;2024-02-26T14:18:43;27.10;;;13.50;;
85797;SDS011;76244;53.434;14.484;2024-02-26T14:21:16;24.80;;;11.90;;
85797;SDS011;76244;53.434;14.484;2024-02-26T14:23:48;32.00;;;13.30;;
85797;SDS011;76244;53.434;14.484;2024-02-26T14:26:21;27.20;;;13.00;;
85797;SDS011;76244;53.434;14.484;2024-02-26T14:28:54;26.70;;;12.50;;
85797;SDS011;76244;53.434;14.484;2024-02-26T14:31:26;26.30;;;13.90;;
85797;SDS011;76244;53.434;14.484;2024-02-26T14:33:58;28.70;;;12.90;;
85797;SDS011;76244;53.434;14.484;2024-02-26T14:36:31;28.40;;;12.20;;
85797;SDS011;76244;53.434;14.484;2024-02-26T14:39:04;26.60;;;12.50;;
85797;SDS011;76244;53.434;14.484;2024-02-26T14:41:40;26.90;;;13.20;;
85797;SDS011;76244;53.434;14.484;2024-02-26T14:44:12;23.60;;;12.40;;
85797;SDS011;76244;53.434;14.484;2024-02-26T14:46:45;25.40;;;11.70;;
85797;SDS011;76244;53.434;14.484;2024-02-26T14:49:18;25.00;;;10.30;;
85797;SDS011;76244;53.434;14.484;2024-02-26T14:51:51;21.30;;;10.10;;
85797;SDS011;76244;53.434;14.484;2024-02-26T14:54:23;18.20;;;9.10;;
85797;SDS011;76244;53.434;14.484;2024-02-26T14:56:55;21.00;;;9.70;;